LAKE NATOMA (NIMBUS DAM) (NAT)

Elevation: 132' · AMERICAN R basin · Operator: US Bureau of Reclamation

Provisional data, subject to change.
Query executed Monday at 5:34:51   clock

Select a sensor type for a plot of data.
Note: Reservoir Flows are daily averages.

Earlier

Date RES ELE    STORAGE    RES CHG    OUTFLOW    INFLOW    SPILL    DIS PWR   
 FEET   AF   AF   CFS   CFS   CFS   CFS  
04/03/2016 120.94 6897 -602 4152 3849 803 3260
04/04/2016 122.94 7764 867 3272 3708 820 2383
04/05/2016 121.44 7106 -658 3276 2945 819 2400
04/06/2016 122.04 7359 -- 3266 3395 809 2408
04/07/2016 121.68 7207 -152 3267 3192 812 2406
04/08/2016 122.96 7773 566 3282 3568 828 2405
04/09/2016 123.37 7965 192 3306 3404 851 2406
04/10/2016 122.17 7418 -547 3288 3012 833 2406
04/11/2016 123.02 7800 382 3300 3493 830 2406
04/12/2016 122.41 7526 -274 3302 3165 825 2405
04/13/2016 121.96 7324 -202 3292 3191 814 2406
04/14/2016 121.73 7228 -96 3285 3238 807 2406
04/15/2016 122.05 7364 136 3282 3352 804 2406
04/16/2016 122.59 7607 243 3263 3387 815 2376
04/17/2016 123.09 7833 226 3234 3349 832 2330
04/18/2016 123.61 8078 245 3262 3387 859 2332
04/19/2016 123.07 7824 -254 3236 3110 851 2331
04/20/2016 121.98 7333 -491 3205 2959 821 2330
04/21/2016 123.32 7941 608 3191 3500 824 2310
04/22/2016 123.59 8068 127 3121 3186 816 2237
04/23/2016 123.65 8097 29 3140 3155 836 2236
04/24/2016 122.95 7769 -328 3116 2952 814 2234
04/25/2016 122.45 7544 -225 3203 3091 822 2313
04/26/2016 123.44 7998 454 3237 3467 811 2354
04/27/2016 123.65 8097 99 3265 3317 826 2354
04/28/2016 122.88 7737 -- 3329 3152 830 2409
04/29/2016 123.14 7857 120 3364 3428 820 2454
04/30/2016 123.57 8059 202 3378 3484 834 2454
05/01/2016 122.69 7652 -407 3307 3106 836 2381
05/02/2016 -- -- -- -- -- -- --

Later | Latest

Warning! This data is preliminary and subject to revision.

Show NAT Map | Plot NAT Data | 1 Month NAT Data | Real-Time NAT Data | NAT Info